Etusivu
METAR-TAF:

METAR-TAF

Lentoasemat :

Victoria, Mahé, Seychellit

Leveyspiiri: 04-40S, Pituuspiiri: 055-31E, korkeus merenpinnasta: 3 m

Tämänhetkinen sää

Tämä raportti tehtiin 21 minuuttia sitten, kello 04.00 UTC
Tuuli 2 kn eri suunnista
Lämpötila 29°C
Kosteus 74%
Ilmanpaine 1012 hPa
Näkyvyys 10 km tai enemmän
Muutamia pilviä 2900 ft:n korkeudessa

METAR: FSIA 210400Z VRB02KT 9999 FEW029 29/24 Q1012 NOSIG

Aika: 08:21 (04:21 UTC)

Sääennuste

Tämä raportti tehtiin 5 tuntia ja 13 minuuttia sitten, kello 23.08 UTC
Ennuste voimassa 21. päivästä klo 00 UTC - 21. päivään klo 24 UTC
Tuuli 10 kn etelästä
Näkyvyys 10 km tai enemmän
Hajanaisia pilviä 2400 ft:n korkeudessa
Todennäköisyys 40% :
Ajoittain
21. päivästä klo 13 UTC - 21. päivään klo 22 UTC
Muutamia pilviä 1800 ft:n korkeudessa, Cumulonimbus.
Hajonneita pilviä 2000 ft:n korkeudessa
heikkoja vesikuuroja

TAF: FSIA 202308Z 2100/2124 19010KT 9999 SCT024 PROB40 TEMPO 2113/2122 -SHRA FEW018CB BKN020

Säähavainnot ja -ennusteet yli 4000 lentoasemalta (METAR- ja TAF-raportit).

Käytössä olevat sääasemat on merkitty karttaan keltaisilla ja punaisilla pisteillä.

Aseta hiiri pisteen päälle nähdäksesi sääaseman nimen.

Klikkaa sitten nähdäksesi säähavainnot ja -ennusteet.

Kartan vaihtaminen: klikkaa mustalla rastilla varustettuja vihreitä pisteitä, niin voit zoomata sisään; viivalla varustettua vihreää pistettä, niin voit zoomata ulos tai vihreitä nuolia, niin pääset viereisille kartoille.


METAR-TAF: